CCGS Louis S. St-Laurent — CGBN — position and weather

sailwx.info

Track history (hours):
 
Tides and Currents Weather Stations Pressure Air Temp Water Temp Dewpoint Dewpoint Depression Visibility Wind Speed Wind Dir Waves Ship Positions

Oceanographic research ship CCGS Louis S. St-Laurent (Canada)

Detailed information on ship capabilities available from ARCUS's ALIAS (Arctic Logistics Information and Support) project.

Last reported at 2019-Apr-22 11:00 UTC. Time now 2019-May-20 02:24 UTC.
Position N 47°12' W 070°36'.
Warning: this ship's position is 27 days out of date.

Length 119.63 m; beam 24.38 m; draft 9.9 m.

MMSI: 316165000.

Wind from 030 at 10 knots

Barometer 1023.6 mb
Air temperature 9.3 ° C
Dewpoint 10.1 ° C

Date/timePositionNaut miles runAvg speedWind from/ knotsBaromVisibWave heightAir tempDewpointWater temp
2019-Apr-22 11:00N 47°12' W 070°36'2221.7 030 / 101023.6 9.310.1
2019-Apr-22 10:00N 47°30' W 070°18'8 8.1 210 / 31022.8 8.1 8.9
2019-Apr-22 09:00N 47°30' W 070°06'0 0.0 350 / 71022.1 4.9 5.7
2019-Apr-22 08:00N 47°30' W 070°06'7 7.2 330 / 51022.0 7.0 7.8
2019-Apr-22 07:00N 47°36' W 070°00'4 4.0 140 / 31021.9 8.1 9.0
2019-Apr-22 06:00N 47°36' W 069°54'4 4.0 250 / 21021.6 6.7 7.6
2019-Apr-22 05:00N 47°36' W 070°00'7 7.2 360 / 41021.3 9.610.5
2019-Apr-22 04:00N 47°42' W 069°54'7 7.2 200 / 41020.1 8.6 9.5
2019-Apr-22 03:00N 47°48' W 069°48'7 7.2 340 / 91019.7 11.512.3
2019-Apr-22 02:00N 47°54' W 069°42'1312.7 320 / 201018.7 12.413.2
2019-Apr-22 01:00N 48°06' W 069°36'7 7.2 280 / 151017.7 11.011.9
2019-Apr-22 00:00N 48°12' W 069°30'1010.0 300 / 111016.3 12.213.1
2019-Apr-21 23:00N 48°18' W 069°18'1010.0 240 / 141015.0 13.314.3
2019-Apr-21 22:00N 48°24' W 069°06'1414.4 210 / 211013.1 7.3 8.3
2019-Apr-21 21:00N 48°36' W 068°54'1313.3 150 / 111013.7 6.5 7.5
2019-Apr-21 20:00N 48°42' W 068°36'10 9.9 110 / 81013.2 5.8 6.7
2019-Apr-21 19:00N 48°48' W 068°24'10 9.9 070 / 81013.6 5.8 6.8
2019-Apr-21 18:00N 48°54' W 068°12'1211.8 040 / 81013.6 4.9 5.8
2019-Apr-21 17:00N 48°54' W 067°54'1312.6 030 / 81013.9 3.9 4.8
2019-Apr-21 16:00N 49°06' W 067°48'1211.8 070 / 91013.5 5.7 6.6
2019-Apr-21 15:00N 49°06' W 067°30'1716.8 060 / 111014.1 1.6 2.5
2019-Apr-21 14:00N 49°18' W 067°12'1313.2 030 / 161014.0 1.1 1.9
2019-Apr-21 13:00N 49°24' W 066°54'1716.7 350 / 91015.3 1.1 1.9
2019-Apr-21 12:00N 49°30' W 066°30'2613.1 130 / 41015.1 4.0 4.9
2019-Apr-21 10:00N 49°42' W 065°54'1313.1 070 / 121015.9 3.2 4.0
2019-Apr-21 09:00N 49°48' W 065°36'10 9.8 060 / 121016.8 2.5 3.3
2019-Apr-21 08:00N 49°54' W 065°24'1211.6 080 / 131018.8 3.1 3.9
2019-Apr-21 07:00N 49°54' W 065°06'1211.6 070 / 131021.2 2.7 3.5
2019-Apr-21 06:00N 49°54' W 064°48'1716.7 110 / 141022.4 2.8 3.6
2019-Apr-21 05:00N 50°06' W 064°30'1211.5 110 / 61023.4 2.7 3.5
2019-Apr-21 04:00N 50°06' W 064°12'1211.5 150 / 91023.9 2.7 3.4
2019-Apr-21 03:00N 50°06' W 063°54'1211.5 120 / 121023.9 3.8 4.6
2019-Apr-21 02:00N 50°06' W 063°36'1313.0 130 / 91024.3 3.4 4.1
2019-Apr-21 01:00N 50°00' W 063°18'1515.4 160 / 101023.8 2.8 3.6
2019-Apr-21 00:00N 50°00' W 062°54'1716.6 160 / 101024.1 1.7 2.4
2019-Apr-20 23:00N 49°54' W 062°30'1515.5 100 / 21023.7 3.7 4.4
2019-Apr-20 22:00N 49°54' W 062°06'1919.3 290 / 31023.2 4.2 4.9
2019-Apr-20 21:00N 49°54' W 061°36'1515.5 210 / 41022.3 4.4 5.2
2019-Apr-20 20:00N 49°54' W 061°12'1716.6 280 / 61021.6 3.6 4.4
2019-Apr-20 19:00N 49°48' W 060°48'1716.6 280 / 81021.0 3.2 4.1
2019-Apr-20 18:00N 49°42' W 060°24'2020.3 290 / 101020.3 1.7 2.5
2019-Apr-20 17:00N 49°36' W 059°54'1716.7 280 / 111019.8 2.2 3.0
2019-Apr-20 16:00N 49°30' W 059°30'2019.7 250 / 81019.6 2.0 2.8
2019-Apr-20 15:00N 49°18' W 059°06'1615.7 210 / 121019.9 -0.3 0.5
2019-Apr-20 14:00N 49°18' W 058°42'1313.2 220 / 71019.3 0.2 1.0
2019-Apr-20 13:00N 49°12' W 058°24'1116.5 270 / 91018.4 0.7 1.5
2019-Apr-20 12:18N 49°04' W 058°11'311.5
2019-Apr-20 12:00N 49°02' W 058°07'2141.6
2019-Apr-20 12:00N 49°00' W 058°06'4 7.5 210 / 21018.0 2.6 3.4
2019-Apr-20 11:30N 48°58' W 058°01'3 6.2
2019-Apr-20 11:00N 48°60' W 058°05'6449.3
2019-Apr-20 11:00N 48°54' W 058°06'1021.4 110 / 51017.0 2.1 3.0
2019-Apr-20 10:30N 49°04' W 058°10'611.3
2019-Apr-20 10:00N 49°06' W 058°18'7 7.2 090 / 71015.8 1.2 2.0
2019-Apr-20 09:00N 49°12' W 058°24'4134.0 270 / 41015.9 1.5 2.3
2019-Apr-20 08:58N 49°09' W 058°20'8 8.6
2019-Apr-20 08:04N 49°04' W 058°11'1 8.9
2019-Apr-20 08:01N 49°04' W 058°10'2133.6
2019-Apr-20 08:00N 49°06' W 058°12'611.3 210 / 31014.7 1.4 2.2
2019-Apr-20 07:30N 49°01' W 058°07'2 3.3
2019-Apr-20 07:00N 49°00' W 058°06'2317.0 360 / 61013.5 1.9 2.7
2019-Apr-20 06:59N 49°02' W 058°07'0 0.2
2019-Apr-20 06:30N 49°02' W 058°07'2 3.6
2019-Apr-20 06:00N 49°00' W 058°06'240.2 350 / 61012.5 2.2 3.0
2019-Apr-20 05:57N 49°02' W 058°07'0 0.1
2019-Apr-20 05:30N 49°02' W 058°08'0 0.2
2019-Apr-20 05:01N 49°02' W 058°07'2126.0
2019-Apr-20 05:00N 49°00' W 058°06'2 4.6 230 / 21011.5 3.9 4.7
2019-Apr-20 04:30N 49°02' W 058°08'2 4.3
2019-Apr-20 04:00N 49°00' W 058°06'233.7 320 / 71011.4 1.8 2.6
2019-Apr-20 03:55N 49°02' W 058°08'0 0.1
2019-Apr-20 03:30N 49°02' W 058°08'0 0.1
2019-Apr-20 03:00N 49°02' W 058°08'2181.9
2019-Apr-20 03:00N 49°00' W 058°06'2 5.1 350 / 51010.8 1.9 2.7
2019-Apr-20 02:31N 49°02' W 058°08'0 0.0
2019-Apr-20 02:00N 49°02' W 058°08'2158.2
2019-Apr-20 02:00N 49°00' W 058°06'3 5.0 330 / 51010.0 2.5 3.3
2019-Apr-20 01:29N 49°02' W 058°08'0 0.1
2019-Apr-20 01:00N 49°02' W 058°08'3759.1
2019-Apr-20 01:00N 49°00' W 058°06'2 4.0 270 / 81009.0 3.7 4.5
2019-Apr-20 00:30N 49°02' W 058°08'0 0.1
2019-Apr-20 00:00N 49°02' W 058°08'2156.9
2019-Apr-20 00:00N 49°00' W 058°06'2 4.2 280 / 11008.7 4.8 5.6
2019-Apr-19 23:30N 49°02' W 058°08'0 0.1
2019-Apr-19 23:01N 49°02' W 058°08'2118.8
2019-Apr-19 23:00N 49°00' W 058°06'2 3.7 170 / 21007.5 5.3 6.1
2019-Apr-19 22:30N 49°01' W 058°08'2 3.5
2019-Apr-19 22:00N 49°00' W 058°06'257.4 140 / 31007.4 5.5 6.3
2019-Apr-19 21:58N 49°01' W 058°07'0 0.7
2019-Apr-19 21:30N 49°01' W 058°07'0 0.6
2019-Apr-19 21:00N 49°01' W 058°07'159.2
2019-Apr-19 21:00N 49°00' W 058°06'1 1.7 020 / 21007.8 4.4 5.3
2019-Apr-19 20:30N 49°01' W 058°06'1 2.3
2019-Apr-19 20:00N 48°60' W 058°05'135.7
2019-Apr-19 20:00N 49°00' W 058°06'4 7.3 140 / 191006.8 3.8 4.6
2019-Apr-19 19:30N 49°03' W 058°08'713.4
2019-Apr-19 19:00N 49°06' W 058°18'220.7 200 / 191005.2 6.6 7.5
2019-Apr-19 18:53N 49°08' W 058°20'1 1.6
2019-Apr-19 18:12N 49°09' W 058°20'314.9
2019-Apr-19 18:00N 49°12' W 058°18'0 0.0 170 / 141005.7 6.6 7.4
2019-Apr-19 17:00N 49°12' W 058°18'3 9.4 150 / 121007.8 3.8 4.6
2019-Apr-19 16:43N 49°09' W 058°18'810.8
2019-Apr-19 16:00N 49°04' W 058°09'3201.0
2019-Apr-19 16:00N 49°06' W 058°06'1212.0 150 / 251011.4 2.0 2.8
2019-Apr-19 15:00N 48°54' W 058°06'621.9 110 / 121013.1 1.0 1.8
2019-Apr-19 14:44N 48°60' W 058°05'0 0.0
2019-Apr-19 14:02N 48°60' W 058°05'6128.4
2019-Apr-19 14:00N 48°54' W 058°06'6138.8 110 / 161014.4 0.7 1.4
2019-Apr-19 13:57N 48°60' W 058°05'0 0.0
2019-Apr-19 13:29N 48°60' W 058°05'611.5
2019-Apr-19 13:00N 48°54' W 058°06'6341.4 150 / 221015.6 1.1 1.8
2019-Apr-19 12:59N 48°60' W 058°05'0 0.1
2019-Apr-19 12:29N 48°60' W 058°05'611.5
2019-Apr-19 12:00N 48°54' W 058°06'651.1 100 / 121017.2 1.9 2.6
2019-Apr-19 11:53N 48°60' W 058°05'0 0.0
2019-Apr-19 11:30N 48°60' W 058°05'0 0.0
2019-Apr-19 11:00N 48°60' W 058°05'6406.5
2019-Apr-19 11:00N 48°54' W 058°06'611.7 100 / 91018.9 2.8 3.4
2019-Apr-19 10:31N 48°60' W 058°05'0 0.0
2019-Apr-19 10:00N 48°60' W 058°05'6484.0
2019-Apr-19 10:00N 48°54' W 058°06'611.6 100 / 71020.4 0.6 1.3
2019-Apr-19 09:30N 48°60' W 058°05'0 0.0
2019-Apr-19 09:00N 48°60' W 058°05'6376.1
2019-Apr-19 09:00N 48°54' W 058°06'611.7 100 / 91021.6 -0.0 0.6
2019-Apr-19 08:30N 48°60' W 058°05'0 0.0
2019-Apr-19 08:00N 48°60' W 058°05'6406.1
2019-Apr-19 08:00N 48°54' W 058°06'611.7 120 / 101021.9 -0.5 0.1
2019-Apr-19 07:30N 48°60' W 058°05'0 0.0
2019-Apr-19 07:00N 48°60' W 058°05'6406.5
2019-Apr-19 07:00N 48°54' W 058°06'611.6 100 / 91022.6 -0.2 0.3
2019-Apr-19 06:30N 48°60' W 058°05'0 0.0
2019-Apr-19 06:00N 48°60' W 058°05'6441.4
2019-Apr-19 06:00N 48°54' W 058°06'611.3 090 / 41022.8 0.6 1.2
2019-Apr-19 05:30N 48°60' W 058°05'611.3
2019-Apr-19 05:00N 48°54' W 058°06'63384.3 090 / 51023.2 0.3 0.8
2019-Apr-19 04:59N 48°60' W 058°05'0 0.0
2019-Apr-19 04:30N 48°60' W 058°05'0 0.0
2019-Apr-19 04:00N 48°60' W 058°05'6362.9
2019-Apr-19 04:00N 48°54' W 058°06'611.3 100 / 71024.2 -0.4 0.2
2019-Apr-19 03:29N 48°60' W 058°05'0 0.0
2019-Apr-19 03:01N 48°60' W 058°05'6338.8
2019-Apr-19 03:00N 48°54' W 058°06'611.7 130 / 31024.6 0.7 1.3
2019-Apr-19 02:31N 48°60' W 058°05'0 0.0
2019-Apr-19 02:00N 48°60' W 058°05'6390.5
2019-Apr-19 02:00N 48°54' W 058°06'611.7 120 / 41024.9 -0.2 0.3
2019-Apr-19 01:31N 48°60' W 058°05'0 0.0
2019-Apr-19 01:00N 48°60' W 058°05'6363.0
2019-Apr-19 01:00N 48°54' W 058°06'611.7 160 / 41025.4 -1.6-0.9
2019-Apr-19 00:31N 48°60' W 058°05'0 0.0
2019-Apr-19 00:00N 48°60' W 058°05'0 0.0
2019-Apr-18 23:31N 48°60' W 058°05'0 0.0
2019-Apr-18 23:01N 48°60' W 058°05'6338.5
2019-Apr-18 23:00N 48°54' W 058°06'611.6 340 / 31025.3 -0.3 0.2
2019-Apr-18 22:30N 48°60' W 058°05'0 0.0
2019-Apr-18 22:00N 48°60' W 058°05'6362.3
2019-Apr-18 22:00N 48°54' W 058°06'611.6 310 / 71025.5 -0.7-0.1
2019-Apr-18 21:30N 48°60' W 058°05'0 0.0
2019-Apr-18 21:01N 48°60' W 058°05'6338.5
2019-Apr-18 21:00N 48°54' W 058°06'611.7 310 / 81024.9 0.8 1.3
2019-Apr-18 20:31N 48°60' W 058°05'0 0.0
2019-Apr-18 20:01N 48°60' W 058°05'6338.5
2019-Apr-18 20:00N 48°54' W 058°06'611.6 320 / 81024.8 0.9 1.4
2019-Apr-18 19:30N 48°60' W 058°05'0 0.0
2019-Apr-18 19:00N 48°60' W 058°05'6362.3
2019-Apr-18 19:00N 48°54' W 058°06'611.7 270 / 61024.9 0.8 1.3
2019-Apr-18 18:31N 48°60' W 058°05'0 0.0
2019-Apr-18 18:01N 48°60' W 058°05'6338.1
2019-Apr-18 18:00N 48°54' W 058°06'611.6 320 / 51024.7 0.9 1.4
2019-Apr-18 17:30N 48°60' W 058°05'0 0.0
2019-Apr-18 17:00N 48°60' W 058°05'6422.2
2019-Apr-18 17:00N 48°54' W 058°06'611.7 340 / 101024.3 0.5 1.0
2019-Apr-18 16:31N 48°60' W 058°05'0 0.0
2019-Apr-18 16:01N 48°60' W 058°05'6338.1
2019-Apr-18 16:00N 48°54' W 058°06'611.7 340 / 101024.1 -0.0 0.6
2019-Apr-18 15:31N 48°60' W 058°05'0 0.0
2019-Apr-18 15:01N 48°60' W 058°05'6338.5
2019-Apr-18 15:00N 48°54' W 058°06'611.7 350 / 81024.0 0.1 0.7
2019-Apr-18 14:31N 48°60' W 058°05'0 0.0
2019-Apr-18 14:00N 48°60' W 058°05'3 5.9
2019-Apr-18 13:30N 49°02' W 058°07'815.5
2019-Apr-18 13:00N 49°06' W 058°18'132.2 340 / 61023.4 -1.2-0.6
2019-Apr-18 12:57N 49°07' W 058°18'4 4.0
2019-Apr-18 12:00N 49°06' W 058°12'246.0 290 / 121022.4 -1.5-0.9
2019-Apr-18 11:57N 49°04' W 058°11'713.9
2019-Apr-18 11:28N 48°59' W 058°04'2 4.9
2019-Apr-18 11:00N 48°59' W 058°01'5284.7
2019-Apr-18 11:00N 48°54' W 058°00'510.4 290 / 91022.4 -1.4-0.8
2019-Apr-18 10:30N 48°59' W 058°02'4 8.2
2019-Apr-18 10:00N 49°01' W 058°07'299.9
2019-Apr-18 10:00N 49°00' W 058°06'2 3.3 360 / 61021.6 -2.3-1.7
2019-Apr-18 09:31N 49°01' W 058°07'0 0.0
2019-Apr-18 09:01N 49°01' W 058°07'296.3
2019-Apr-18 09:00N 49°00' W 058°06'2 3.3 340 / 61020.7 -2.5-1.9
2019-Apr-18 08:31N 49°01' W 058°07'0 0.0
2019-Apr-18 08:01N 49°01' W 058°07'296.0
2019-Apr-18 08:00N 49°00' W 058°06'2 3.3 010 / 61019.7 -2.0-1.4
2019-Apr-18 07:30N 49°01' W 058°07'0 0.0
2019-Apr-18 07:01N 49°01' W 058°07'296.1
2019-Apr-18 07:00N 49°00' W 058°06'2 3.3 340 / 71018.9 -1.3-0.6
2019-Apr-18 06:30N 49°01' W 058°07'0 0.0
2019-Apr-18 06:01N 49°01' W 058°07'296.0
2019-Apr-18 06:00N 49°00' W 058°06'2 3.3 350 / 81017.8 -1.0-0.4
2019-Apr-18 05:31N 49°01' W 058°07'0 0.0
2019-Apr-18 05:01N 49°01' W 058°07'296.1
2019-Apr-18 05:00N 49°00' W 058°06'2 3.3 360 / 111017.3 -0.0 0.6
2019-Apr-18 04:31N 49°01' W 058°07'0 0.0
2019-Apr-18 04:00N 49°01' W 058°07'2102.9
2019-Apr-18 04:00N 49°00' W 058°06'2 3.3 360 / 91017.0 -0.2 0.5
2019-Apr-18 03:31N 49°01' W 058°07'0 0.0
2019-Apr-18 03:01N 49°01' W 058°07'296.3
2019-Apr-18 03:00N 49°00' W 058°06'2 3.3 330 / 121016.4 0.1 0.8
2019-Apr-18 02:31N 49°01' W 058°07'0 0.0
2019-Apr-18 02:00N 49°01' W 058°07'2102.9
2019-Apr-18 02:00N 49°00' W 058°06'2 3.3 320 / 111015.8 0.2 0.9
2019-Apr-18 01:31N 49°01' W 058°07'0 0.0
2019-Apr-18 01:00N 49°01' W 058°07'2120.0
2019-Apr-18 01:00N 49°00' W 058°06'2 3.2 320 / 101015.2 0.5 1.2
2019-Apr-18 00:30N 49°01' W 058°07'0 0.0
2019-Apr-18 00:01N 49°01' W 058°07'294.9
2019-Apr-18 00:00N 49°00' W 058°06'2 3.3 340 / 121014.2 0.7 1.3
2019-Apr-17 23:31N 49°01' W 058°07'0 0.0
2019-Apr-17 23:00N 49°01' W 058°07'2142.3
2019-Apr-17 23:00N 49°00' W 058°06'2 3.3 350 / 151012.7 0.9 1.5
2019-Apr-17 22:30N 49°01' W 058°07'0 0.0
2019-Apr-17 22:00N 49°01' W 058°07'2218.9
2019-Apr-17 22:00N 49°00' W 058°06'2 3.3 350 / 171011.6 1.0 1.7
2019-Apr-17 21:30N 49°01' W 058°07'611.9
2019-Apr-17 21:00N 48°58' W 057°59'6361.1
2019-Apr-17 21:00N 48°54' W 057°54'4 8.3 320 / 111010.1 2.1 2.7
2019-Apr-17 20:31N 48°58' W 057°57'611.2
2019-Apr-17 20:00N 48°60' W 058°05'6466.9
2019-Apr-17 20:00N 48°54' W 058°06'1123.5 320 / 181009.3 2.5 3.2
2019-Apr-17 19:30N 49°05' W 058°11'4 8.6
2019-Apr-17 19:00N 49°06' W 058°18'123.1 1008.7 2.7 3.4
2019-Apr-17 18:56N 49°07' W 058°19'1 1.7
2019-Apr-17 18:27N 49°08' W 058°19'4 8.6
2019-Apr-17 18:00N 49°12' W 058°18'234.0 010 / 241006.3 1.3 2.0
2019-Apr-17 17:56N 49°10' W 058°20'1313.8
2019-Apr-17 17:00N 49°12' W 058°00'4 3.9 020 / 361003.2 1.3 2.0
2019-Apr-17 16:00N 49°12' W 057°54'1211.8 020 / 311000.2 1.4 2.2
2019-Apr-17 15:00N 49°12' W 058°12'1818.4 330 / 231002.9 -0.3 0.5
2019-Apr-17 14:00N 49°30' W 058°18'1313.1 020 / 361001.4 0.3 1.1
2019-Apr-17 13:00N 49°36' W 058°00'7 7.2 360 / 29999.6 -0.8-0.0
2019-Apr-17 12:00N 49°30' W 057°54'0 0.0 340 / 29998.9 -0.4 0.4
2019-Apr-17 11:00N 49°30' W 057°54'0 0.0 330 / 28996.4 -0.7 0.2
2019-Apr-17 10:00N 49°30' W 057°54'0 0.0 330 / 28995.1 -0.8-0.0
2019-Apr-17 09:00N 49°30' W 057°54'0 0.0 340 / 33992.7 -0.8-0.0
2019-Apr-17 08:00N 49°30' W 057°54'0 0.0 340 / 29991.7 -0.9-0.1
2019-Apr-17 07:00N 49°30' W 057°54'0 0.0 330 / 28990.6 -1.0-0.2
2019-Apr-17 05:00N 49°30' W 057°54'0 0.0 330 / 27988.3 -0.6 0.2
2019-Apr-17 04:00N 49°30' W 057°54'0 0.0 330 / 22987.6 -0.5 0.3
2019-Apr-17 03:00N 49°30' W 057°54'6 6.0 320 / 21986.8 -0.4 0.4
2019-Apr-17 02:00N 49°36' W 057°54'1414.3 340 / 19986.3 -0.2 0.6
2019-Apr-17 01:00N 49°48' W 058°06'1313.1 020 / 33986.6 -0.7 0.1
2019-Apr-17 00:00N 49°54' W 057°48'0 0.0 010 / 25985.8 -0.6 0.3
2019-Apr-16 23:00N 49°54' W 057°48'1312.6 010 / 16985.1 -0.7 0.1
2019-Apr-16 22:00N 50°06' W 057°54'1312.6 020 / 17986.1 0.6 1.5
2019-Apr-16 21:00N 50°18' W 057°48'2019.6 020 / 17986.6 1.4 2.1
2019-Apr-16 20:00N 50°36' W 057°36'1414.2 020 / 18987.9 0.2 1.0
2019-Apr-16 19:00N 50°48' W 057°24'1312.9 010 / 14988.0 0.2 1.0
2019-Apr-16 18:00N 50°54' W 057°06'6 6.0 020 / 14987.3 0.3 1.1
2019-Apr-16 17:00N 50°48' W 057°06'10 9.7 040 / 19986.6 -0.3 0.5
2019-Apr-16 16:00N 50°54' W 057°18'7 7.1 040 / 35988.8 -1.5-0.7
2019-Apr-16 15:00N 50°48' W 057°24'7 7.1 030 / 26990.3 -1.6-0.9
2019-Apr-16 14:00N 50°42' W 057°18'6 3.0 040 / 27990.3 -0.9-0.2
2019-Apr-16 12:00N 50°36' W 057°18'0 0.0 070 / 16989.1 -0.3 0.4
2019-Apr-16 11:00N 50°36' W 057°18'1312.9 090 / 38989.2 -0.8-0.2
2019-Apr-16 10:00N 50°42' W 057°36'1312.9 070 / 36990.2 -0.6 0.1
2019-Apr-16 09:00N 50°36' W 057°54'1212.0 070 / 29990.0 -0.2 0.4
2019-Apr-16 08:00N 50°24' W 057°54'1414.2 090 / 30988.2 0.8 1.5
2019-Apr-16 07:00N 50°12' W 058°06'1212.0 090 / 17988.7 1.9 2.6
2019-Apr-16 06:00N 50°00' W 058°06'1414.3 100 / 21988.4 2.2 3.0
2019-Apr-16 05:00N 49°48' W 058°18'7 7.1 090 / 19989.8 2.3 3.1
2019-Apr-16 04:00N 49°42' W 058°24'1312.6 120 / 22991.0 2.6 3.4
2019-Apr-16 03:00N 49°30' W 058°30'1312.6 140 / 27990.1 3.4 4.2
2019-Apr-16 02:00N 49°18' W 058°24'6 6.0 140 / 42988.4 2.7 3.6
2019-Apr-16 01:00N 49°12' W 058°24'4 5.0 130 / 39991.8 2.0 2.9
2019-Apr-16 00:16N 49°10' W 058°20'414.8
2019-Apr-16 00:00N 49°06' W 058°18'411.2 160 / 22998.1 2.1 2.9
2019-Apr-15 23:40N 49°09' W 058°16'710.8
2019-Apr-15 23:00N 49°06' W 058°06'4 3.9 100 / 31999.7 1.9 2.7
2019-Apr-15 22:00N 49°06' W 058°00'7 7.2 080 / 221002.9 2.5 3.3
2019-Apr-15 21:00N 49°12' W 057°54'7 7.2 070 / 161004.7 2.8 3.6
2019-Apr-15 20:00N 49°06' W 058°00'0 0.0 090 / 151007.5 4.0 4.7
2019-Apr-15 19:00N 49°06' W 058°00'911.7 100 / 91006.4 4.9 5.6
2019-Apr-15 18:11N 49°09' W 058°14'210.6
2019-Apr-15 18:00N 49°09' W 058°17'3190.6
2019-Apr-15 18:00N 49°12' W 058°18'6 6.0 320 / 61009.0 1.4 2.1
2019-Apr-15 17:00N 49°06' W 058°18'512.5 260 / 81009.4 3.8 4.5
2019-Apr-15 16:35N 49°04' W 058°11'116.2
2019-Apr-15 16:30N 49°04' W 058°09'714.7
2019-Apr-15 16:00N 48°59' W 058°01'5297.3
2019-Apr-15 16:00N 48°54' W 058°00'4 8.7 180 / 141009.9 8.8 9.5
2019-Apr-15 15:31N 48°58' W 057°57'0 0.0
2019-Apr-15 15:01N 48°58' W 057°57'4236.2
2019-Apr-15 15:00N 48°54' W 057°54'4 8.1 020 / 11010.6 10.311.0
2019-Apr-15 14:31N 48°58' W 057°57'0 0.0
2019-Apr-15 14:01N 48°58' W 057°57'4236.2
2019-Apr-15 14:00N 48°54' W 057°54'4 8.1 010 / 51010.7 8.9 9.7
2019-Apr-15 13:31N 48°58' W 057°57'0 0.0
2019-Apr-15 13:00N 48°58' W 057°57'4244.3
2019-Apr-15 13:00N 48°54' W 057°54'4 8.1 010 / 31011.3 7.1 7.8
2019-Apr-15 12:31N 48°58' W 057°57'0 0.0
2019-Apr-15 12:00N 48°58' W 057°57'4295.2
2019-Apr-15 12:00N 48°54' W 057°54'4 8.1 010 / 41012.3 4.6 5.4
2019-Apr-15 11:31N 48°58' W 057°57'0 0.0
2019-Apr-15 11:01N 48°58' W 057°57'4236.2
2019-Apr-15 11:00N 48°54' W 057°54'4 8.1 350 / 21013.2 3.1 3.8
2019-Apr-15 10:31N 48°58' W 057°57'0 0.0
2019-Apr-15 10:01N 48°58' W 057°57'4235.8
2019-Apr-15 10:00N 48°54' W 057°54'4 8.1 1012.8 1.7 2.4
2019-Apr-15 09:31N 48°58' W 057°57'0 0.0
2019-Apr-15 09:01N 48°58' W 057°57'4236.5
2019-Apr-15 09:00N 48°54' W 057°54'4 8.1 120 / 21012.4 0.8 1.4
2019-Apr-15 08:31N 48°58' W 057°57'0 0.0
2019-Apr-15 08:01N 48°58' W 057°57'4236.2
2019-Apr-15 08:00N 48°54' W 057°54'4 8.1 090 / 21012.4 1.3 2.0
2019-Apr-15 07:31N 48°58' W 057°57'0 0.0
2019-Apr-15 07:01N 48°58' W 057°57'4236.2
2019-Apr-15 07:00N 48°54' W 057°54'4 8.1 100 / 21012.1 1.0 1.7
2019-Apr-15 06:30N 48°58' W 057°57'0 0.0
2019-Apr-15 06:01N 48°58' W 057°57'4236.2
2019-Apr-15 06:00N 48°54' W 057°54'4 8.1 110 / 51011.9 1.0 1.7
2019-Apr-15 05:31N 48°58' W 057°57'0 0.0
2019-Apr-15 05:01N 48°58' W 057°57'4236.2
2019-Apr-15 05:00N 48°54' W 057°54'4 8.1 140 / 71011.7 1.4 2.1
2019-Apr-15 04:31N 48°58' W 057°57'0 0.0
2019-Apr-15 04:01N 48°58' W 057°57'4236.2
2019-Apr-15 04:00N 48°54' W 057°54'4 8.1 130 / 81011.5 1.1 1.8
2019-Apr-15 03:31N 48°58' W 057°57'0 0.0
2019-Apr-15 03:00N 48°58' W 057°57'4244.3
2019-Apr-15 03:00N 48°54' W 057°54'4 8.1 150 / 61010.9 2.8 3.5
2019-Apr-15 02:31N 48°58' W 057°57'0 0.0
2019-Apr-15 02:01N 48°58' W 057°57'4236.2
2019-Apr-15 02:00N 48°54' W 057°54'4 8.1 230 / 21010.7 3.7 4.4
2019-Apr-15 01:31N 48°58' W 057°57'0 0.0
2019-Apr-15 01:01N 48°58' W 057°57'4236.5
2019-Apr-15 01:00N 48°54' W 057°54'4 8.1 190 / 21010.6 3.4 4.1
2019-Apr-15 00:31N 48°58' W 057°57'0 0.0
2019-Apr-15 00:01N 48°58' W 057°57'4236.2
2019-Apr-15 00:00N 48°54' W 057°54'4 8.1 250 / 61010.1 3.4 4.1
2019-Apr-14 23:30N 48°58' W 057°57'0 0.0
2019-Apr-14 23:01N 48°58' W 057°57'4236.2
2019-Apr-14 23:00N 48°54' W 057°54'4 8.1 220 / 51009.0 3.5 4.2
2019-Apr-14 22:31N 48°58' W 057°57'0 0.0
2019-Apr-14 22:01N 48°58' W 057°57'4228.5
2019-Apr-14 22:00N 48°54' W 057°54'4 8.1 220 / 21007.6 3.5 4.2
2019-Apr-14 21:30N 48°58' W 057°57'0 0.0
2019-Apr-14 21:01N 48°58' W 057°57'4232.3
2019-Apr-14 21:00N 48°54' W 057°54'4 8.1 260 / 21006.9 3.4 4.1
2019-Apr-14 20:31N 48°58' W 057°57'0 0.0
2019-Apr-14 20:00N 48°58' W 057°57'4244.3
2019-Apr-14 20:00N 48°54' W 057°54'4 8.1 210 / 11006.5 4.5 5.2
2019-Apr-14 19:31N 48°58' W 057°57'0 0.0
2019-Apr-14 19:01N 48°58' W 057°57'4236.2
2019-Apr-14 19:00N 48°54' W 057°54'4 8.1 270 / 51005.6 4.1 4.8
2019-Apr-14 18:31N 48°58' W 057°57'0 0.0
2019-Apr-14 18:01N 48°58' W 057°57'4236.2
2019-Apr-14 18:00N 48°54' W 057°54'4 8.1 280 / 91005.2 3.5 4.3
2019-Apr-14 17:31N 48°58' W 057°57'3 6.0
2019-Apr-14 17:01N 48°59' W 058°01'5269.7
2019-Apr-14 17:00N 48°54' W 058°00'1224.3 290 / 91004.4 3.0 3.8
2019-Apr-14 16:30N 49°04' W 058°09'611.7
2019-Apr-14 16:00N 49°06' W 058°18'624.4 250 / 171003.2 1.1 1.8
2019-Apr-14 15:45N 49°11' W 058°23'1 5.4
2019-Apr-14 15:29N 49°12' W 058°25'3 6.5
2019-Apr-14 15:00N 49°12' W 058°30'3 4.0 270 / 121002.8 0.4 1.2
2019-Apr-14 14:10N 49°12' W 058°25'1 4.5
2019-Apr-14 14:00N 49°12' W 058°24'2139.0 240 / 201001.8 1.2 1.9
2019-Apr-14 13:59N 49°10' W 058°23'2 3.6
2019-Apr-14 13:26N 49°09' W 058°21'4 8.0
2019-Apr-14 13:00N 49°12' W 058°24'0 0.0 240 / 161003.2 0.7 1.5
2019-Apr-14 12:00N 49°12' W 058°24'10 9.9 230 / 161002.2 0.7 1.5
2019-Apr-14 11:00N 49°06' W 058°12'2132.6 280 / 181002.3 2.2 2.9
2019-Apr-14 10:59N 49°04' W 058°11'4 8.9
2019-Apr-14 10:29N 49°01' W 058°06'4 8.1
2019-Apr-14 10:01N 48°59' W 058°02'5285.4
2019-Apr-14 10:00N 48°54' W 058°00'5 9.8 280 / 151002.0 2.8 3.6
2019-Apr-14 09:30N 48°59' W 058°02'3 6.9
2019-Apr-14 09:01N 48°58' W 057°57'4228.8
2019-Apr-14 09:00N 48°54' W 057°54'4 8.1 350 / 51000.8 3.3 4.1
2019-Apr-14 08:31N 48°58' W 057°57'0 0.0
2019-Apr-14 08:01N 48°58' W 057°57'4232.4
2019-Apr-14 08:00N 48°54' W 057°54'4 8.1 230 / 11002.1 2.6 3.4
2019-Apr-14 07:31N 48°58' W 057°57'0 0.0
2019-Apr-14 07:01N 48°58' W 057°57'4236.2
2019-Apr-14 07:00N 48°54' W 057°54'4 8.1 340 / 41001.3 2.8 3.6
2019-Apr-14 06:31N 48°58' W 057°57'0 0.0
2019-Apr-14 06:00N 48°58' W 057°57'4244.4
2019-Apr-14 06:00N 48°54' W 057°54'4 8.1 240 / 71003.9 1.9 2.7
2019-Apr-14 05:31N 48°58' W 057°57'0 0.0
2019-Apr-14 05:01N 48°58' W 057°57'4236.3
2019-Apr-14 05:00N 48°54' W 057°54'4 8.1 360 / 11003.3 4.6 5.3
2019-Apr-14 04:31N 48°58' W 057°57'0 0.0
2019-Apr-14 04:01N 48°58' W 057°57'4236.2
2019-Apr-14 04:00N 48°54' W 057°54'4 8.1 240 / 41004.7 3.6 4.3
2019-Apr-14 03:31N 48°58' W 057°57'0 0.0
2019-Apr-14 03:01N 48°58' W 057°57'4236.2
2019-Apr-14 03:00N 48°54' W 057°54'4 8.1 110 / 21006.1 4.1 4.8
2019-Apr-14 02:31N 48°58' W 057°57'0 0.0
2019-Apr-14 02:01N 48°58' W 057°57'0 0.0
2019-Apr-14 01:31N 48°58' W 057°57'0 0.0
2019-Apr-14 01:01N 48°58' W 057°57'4236.2
2019-Apr-14 01:00N 48°54' W 057°54'4 8.1 310 / 11008.4 2.7 3.3
2019-Apr-14 00:31N 48°58' W 057°57'0 0.0
2019-Apr-14 00:01N 48°58' W 057°57'4236.2
2019-Apr-14 00:00N 48°54' W 057°54'4 8.1 240 / 51009.3 3.3 3.9
2019-Apr-13 23:31N 48°58' W 057°57'0 0.0
2019-Apr-13 23:01N 48°58' W 057°57'4236.2
2019-Apr-13 23:00N 48°54' W 057°54'4 8.1 190 / 41009.0 4.3 4.8
2019-Apr-13 22:31N 48°58' W 057°57'0 0.0
2019-Apr-13 22:01N 48°58' W 057°57'4236.2
2019-Apr-13 22:00N 48°54' W 057°54'4 8.1 170 / 51009.9 4.8 5.3
2019-Apr-13 21:31N 48°58' W 057°57'0 0.0
2019-Apr-13 21:01N 48°58' W 057°57'4235.8
2019-Apr-13 21:00N 48°54' W 057°54'4 8.1 150 / 71011.0 5.7 6.1
2019-Apr-13 20:31N 48°58' W 057°57'0 0.0
2019-Apr-13 20:01N 48°58' W 057°57'4235.8
2019-Apr-13 20:00N 48°54' W 057°54'4 8.1 170 / 71011.4 6.9 7.4
2019-Apr-13 19:31N 48°58' W 057°57'0 0.0
2019-Apr-13 19:01N 48°58' W 057°57'4236.2
2019-Apr-13 19:00N 48°54' W 057°54'4 8.1 150 / 81013.1 6.9 7.5
2019-Apr-13 18:31N 48°58' W 057°57'0 0.0
2019-Apr-13 18:01N 48°58' W 057°57'4236.2
2019-Apr-13 18:00N 48°54' W 057°54'4 8.1 170 / 81013.3 7.1 7.8
2019-Apr-13 17:30N 48°58' W 057°57'0 0.0
2019-Apr-13 17:01N 48°58' W 057°57'4232.2
2019-Apr-13 17:00N 48°54' W 057°54'4 7.5 200 / 111014.9 6.9 7.6
2019-Apr-13 16:28N 48°58' W 057°57'4 8.3
2019-Apr-13 16:00N 48°54' W 057°54'4147.6 270 / 21016.1 5.9 6.6
2019-Apr-13 15:58N 48°58' W 057°57'0 0.0
2019-Apr-13 15:25N 48°58' W 057°57'0 0.3
2019-Apr-13 15:01N 48°58' W 057°57'4238.2
2019-Apr-13 15:00N 48°54' W 057°54'5 9.7 030 / 31017.2 3.0 3.6
2019-Apr-13 14:30N 48°58' W 057°58'2 3.9
2019-Apr-13 14:00N 48°58' W 058°01'4288.3
2019-Apr-13 14:00N 48°54' W 058°00'814.8 130 / 51017.6 1.9 2.5
2019-Apr-13 13:27N 49°01' W 058°06'4 8.9
2019-Apr-13 13:00N 49°04' W 058°10'2159.9
2019-Apr-13 13:00N 49°06' W 058°12'5 7.2 120 / 91017.8 0.3 1.0
2019-Apr-13 12:17N 49°08' W 058°19'517.4
2019-Apr-13 12:00N 49°12' W 058°24'4 3.9 080 / 91018.4 -3.1-2.5
2019-Apr-13 11:00N 49°12' W 058°30'914.6 190 / 91019.4 -2.1-1.5
2019-Apr-13 10:24N 49°08' W 058°18'616.4
2019-Apr-13 10:00N 49°04' W 058°10'2252.1
2019-Apr-13 10:00N 49°06' W 058°12'1019.9 180 / 41020.1 -3.8-3.3
2019-Apr-13 09:31N 48°59' W 058°02'4 7.8
2019-Apr-13 09:00N 48°58' W 057°57'4253.0
2019-Apr-13 09:00N 48°54' W 057°54'4 8.1 340 / 11020.3 -1.3-0.8
2019-Apr-13 08:30N 48°58' W 057°57'0 0.0
2019-Apr-13 08:01N 48°58' W 057°57'4236.3
2019-Apr-13 08:00N 48°54' W 057°54'4 8.1 120 / 11019.9 -3.1-2.5
2019-Apr-13 07:30N 48°58' W 057°57'0 0.0
2019-Apr-13 07:00N 48°58' W 057°57'4244.3
2019-Apr-13 07:00N 48°54' W 057°54'4 8.1 110 / 71019.6 -3.4-2.9
2019-Apr-13 06:30N 48°58' W 057°57'0 0.0
2019-Apr-13 06:00N 48°58' W 057°57'4244.0
2019-Apr-13 06:00N 48°54' W 057°54'4 8.1 100 / 81019.9 -3.8-3.3
2019-Apr-13 05:30N 48°58' W 057°57'0 0.0
2019-Apr-13 05:01N 48°58' W 057°57'4235.9
2019-Apr-13 05:00N 48°54' W 057°54'4 8.1 090 / 61020.2 -3.2-2.7
2019-Apr-13 04:31N 48°58' W 057°57'0 0.0
2019-Apr-13 04:01N 48°58' W 057°57'4235.9
2019-Apr-13 04:00N 48°54' W 057°54'4 8.1 080 / 61020.3 -2.6-2.1
2019-Apr-13 03:31N 48°58' W 057°57'0 0.0
2019-Apr-13 03:00N 48°58' W 057°57'4244.0
2019-Apr-13 03:00N 48°54' W 057°54'4 8.1 090 / 41020.4 -1.9-1.4
2019-Apr-13 02:31N 48°58' W 057°57'0 0.0
2019-Apr-13 02:01N 48°58' W 057°57'4228.3
2019-Apr-13 02:00N 48°54' W 057°54'4 8.1 230 / 21020.4 -0.7-0.2
2019-Apr-13 01:31N 48°58' W 057°57'0 0.0
2019-Apr-13 01:01N 48°58' W 057°57'4235.8
2019-Apr-13 01:00N 48°54' W 057°54'4 8.1 150 / 31020.2 -0.6-0.1
2019-Apr-13 00:31N 48°58' W 057°57'0 0.0
2019-Apr-13 00:01N 48°58' W 057°57'4235.9
2019-Apr-13 00:00N 48°54' W 057°54'4 8.1 180 / 111020.0 -0.2 0.3
2019-Apr-12 23:31N 48°58' W 057°57'0 0.0
2019-Apr-12 23:00N 48°58' W 057°57'4244.3
2019-Apr-12 23:00N 48°54' W 057°54'4 8.1 260 / 31020.0 -0.6-0.1
2019-Apr-12 22:31N 48°58' W 057°57'4 7.6
2019-Apr-12 22:00N 48°54' W 057°54'0 0.0 240 / 41019.9 0.9 1.3
2019-Apr-12 21:00N 48°54' W 057°54'0 0.0 240 / 71020.0 0.5 1.0
2019-Apr-12 20:00N 48°54' W 057°54'10 9.9 280 / 101019.5 1.8 2.3
2019-Apr-12 19:00N 49°00' W 058°06'421.3 330 / 131019.6 1.0 1.5
2019-Apr-12 18:48N 49°04' W 058°09'7 8.2
2019-Apr-12 18:00N 49°06' W 058°18'0 0.0 280 / 121019.3 -0.7-0.2
2019-Apr-12 17:00N 49°06' W 058°18'5 9.0 260 / 151018.8 -1.4-0.9
2019-Apr-12 16:25N 49°04' W 058°11'614.7
2019-Apr-12 16:00N 48°60' W 058°05'6369.1
2019-Apr-12 16:00N 48°54' W 058°06'714.9 310 / 171017.8 0.2 0.7
2019-Apr-12 15:31N 48°58' W 057°57'0 0.1
2019-Apr-12 15:00N 48°58' W 057°57'4244.1
2019-Apr-12 15:00N 48°54' W 057°54'4 8.1 240 / 91019.2 0.6 1.2
2019-Apr-12 14:30N 48°58' W 057°57'0 0.0
2019-Apr-12 14:01N 48°58' W 057°57'4235.8
2019-Apr-12 14:00N 48°54' W 057°54'4 8.1 230 / 101019.5 -0.0 0.5
2019-Apr-12 13:31N 48°58' W 057°57'0 0.0
2019-Apr-12 13:01N 48°58' W 057°57'4235.8
2019-Apr-12 13:00N 48°54' W 057°54'4 8.1 250 / 91019.7 -0.2 0.3
2019-Apr-12 12:30N 48°58' W 057°57'0 0.0
2019-Apr-12 12:00N 48°58' W 057°57'4295.2
2019-Apr-12 12:00N 48°54' W 057°54'4 8.1 250 / 101019.3 -1.1-0.6
2019-Apr-12 11:30N 48°58' W 057°57'0 0.0
2019-Apr-12 11:01N 48°58' W 057°57'4235.9
2019-Apr-12 11:00N 48°54' W 057°54'   240 / 61019.3 -1.8-1.3
Track history (hours):
 
Tides and Currents Weather Stations Pressure Air Temp Water Temp Dewpoint Dewpoint Depression Visibility Wind Speed Wind Dir Waves Ship Positions

Oceanographic research ship CCGS Louis S. St-Laurent (Canada)

Detailed information on ship capabilities available from ARCUS's ALIAS (Arctic Logistics Information and Support) project.

Last reported at 2019-Apr-22 11:00 UTC. Time now 2019-May-20 02:24 UTC.
Position N 47°12' W 070°36'.
Warning: this ship's position is 27 days out of date.

Length 119.63 m; beam 24.38 m; draft 9.9 m.

MMSI: 316165000.

Wind from 030 at 10 knots

Barometer 1023.6 mb
Air temperature 9.3 ° C
Dewpoint 10.1 ° C

Date/timePositionNaut miles runAvg speedWind from/ knotsBaromVisibWave heightAir tempDewpointWater temp
2019-Apr-22 11:00N 47°12' W 070°36'2221.7 030 / 101023.6 9.310.1
2019-Apr-22 10:00N 47°30' W 070°18'8 8.1 210 / 31022.8 8.1 8.9
2019-Apr-22 09:00N 47°30' W 070°06'0 0.0 350 / 71022.1 4.9 5.7
2019-Apr-22 08:00N 47°30' W 070°06'7 7.2 330 / 51022.0 7.0 7.8
2019-Apr-22 07:00N 47°36' W 070°00'4 4.0 140 / 31021.9 8.1 9.0
2019-Apr-22 06:00N 47°36' W 069°54'4 4.0 250 / 21021.6 6.7 7.6
2019-Apr-22 05:00N 47°36' W 070°00'7 7.2 360 / 41021.3 9.610.5
2019-Apr-22 04:00N 47°42' W 069°54'7 7.2 200 / 41020.1 8.6 9.5
2019-Apr-22 03:00N 47°48' W 069°48'7 7.2 340 / 91019.7 11.512.3
2019-Apr-22 02:00N 47°54' W 069°42'1312.7 320 / 201018.7 12.413.2
2019-Apr-22 01:00N 48°06' W 069°36'7 7.2 280 / 151017.7 11.011.9
2019-Apr-22 00:00N 48°12' W 069°30'1010.0 300 / 111016.3 12.213.1
2019-Apr-21 23:00N 48°18' W 069°18'1010.0 240 / 141015.0 13.314.3
2019-Apr-21 22:00N 48°24' W 069°06'1414.4 210 / 211013.1 7.3 8.3
2019-Apr-21 21:00N 48°36' W 068°54'1313.3 150 / 111013.7 6.5 7.5
2019-Apr-21 20:00N 48°42' W 068°36'10 9.9 110 / 81013.2 5.8 6.7
2019-Apr-21 19:00N 48°48' W 068°24'10 9.9 070 / 81013.6 5.8 6.8
2019-Apr-21 18:00N 48°54' W 068°12'1211.8 040 / 81013.6 4.9 5.8
2019-Apr-21 17:00N 48°54' W 067°54'1312.6 030 / 81013.9 3.9 4.8
2019-Apr-21 16:00N 49°06' W 067°48'1211.8 070 / 91013.5 5.7 6.6
2019-Apr-21 15:00N 49°06' W 067°30'1716.8 060 / 111014.1 1.6 2.5
2019-Apr-21 14:00N 49°18' W 067°12'1313.2 030 / 161014.0 1.1 1.9
2019-Apr-21 13:00N 49°24' W 066°54'1716.7 350 / 91015.3 1.1 1.9
2019-Apr-21 12:00N 49°30' W 066°30'2613.1 130 / 41015.1 4.0 4.9
2019-Apr-21 10:00N 49°42' W 065°54'1313.1 070 / 121015.9 3.2 4.0
2019-Apr-21 09:00N 49°48' W 065°36'10 9.8 060 / 121016.8 2.5 3.3
2019-Apr-21 08:00N 49°54' W 065°24'1211.6 080 / 131018.8 3.1 3.9
2019-Apr-21 07:00N 49°54' W 065°06'1211.6 070 / 131021.2 2.7 3.5
2019-Apr-21 06:00N 49°54' W 064°48'1716.7 110 / 141022.4 2.8 3.6
2019-Apr-21 05:00N 50°06' W 064°30'1211.5 110 / 61023.4 2.7 3.5
2019-Apr-21 04:00N 50°06' W 064°12'1211.5 150 / 91023.9 2.7 3.4
2019-Apr-21 03:00N 50°06' W 063°54'1211.5 120 / 121023.9 3.8 4.6
2019-Apr-21 02:00N 50°06' W 063°36'1313.0 130 / 91024.3 3.4 4.1
2019-Apr-21 01:00N 50°00' W 063°18'1515.4 160 / 101023.8 2.8 3.6
2019-Apr-21 00:00N 50°00' W 062°54'1716.6 160 / 101024.1 1.7 2.4
2019-Apr-20 23:00N 49°54' W 062°30'1515.5 100 / 21023.7 3.7 4.4
2019-Apr-20 22:00N 49°54' W 062°06'1919.3 290 / 31023.2 4.2 4.9
2019-Apr-20 21:00N 49°54' W 061°36'1515.5 210 / 41022.3 4.4 5.2
2019-Apr-20 20:00N 49°54' W 061°12'1716.6 280 / 61021.6 3.6 4.4
2019-Apr-20 19:00N 49°48' W 060°48'1716.6 280 / 81021.0 3.2 4.1
2019-Apr-20 18:00N 49°42' W 060°24'2020.3 290 / 101020.3 1.7 2.5
2019-Apr-20 17:00N 49°36' W 059°54'1716.7 280 / 111019.8 2.2 3.0
2019-Apr-20 16:00N 49°30' W 059°30'2019.7 250 / 81019.6 2.0 2.8
2019-Apr-20 15:00N 49°18' W 059°06'1615.7 210 / 121019.9 -0.3 0.5
2019-Apr-20 14:00N 49°18' W 058°42'1313.2 220 / 71019.3 0.2 1.0
2019-Apr-20 13:00N 49°12' W 058°24'1116.5 270 / 91018.4 0.7 1.5
2019-Apr-20 12:18N 49°04' W 058°11'311.5
2019-Apr-20 12:00N 49°02' W 058°07'2141.6
2019-Apr-20 12:00N 49°00' W 058°06'4 7.5 210 / 21018.0 2.6 3.4
2019-Apr-20 11:30N 48°58' W 058°01'3 6.2
2019-Apr-20 11:00N 48°60' W 058°05'6449.3
2019-Apr-20 11:00N 48°54' W 058°06'1021.4 110 / 51017.0 2.1 3.0
2019-Apr-20 10:30N 49°04' W 058°10'611.3
2019-Apr-20 10:00N 49°06' W 058°18'7 7.2 090 / 71015.8 1.2 2.0
2019-Apr-20 09:00N 49°12' W 058°24'4134.0 270 / 41015.9 1.5 2.3
2019-Apr-20 08:58N 49°09' W 058°20'8 8.6
2019-Apr-20 08:04N 49°04' W 058°11'1 8.9
2019-Apr-20 08:01N 49°04' W 058°10'2133.6
2019-Apr-20 08:00N 49°06' W 058°12'611.3 210 / 31014.7 1.4 2.2
2019-Apr-20 07:30N 49°01' W 058°07'2 3.3
2019-Apr-20 07:00N 49°00' W 058°06'2317.0 360 / 61013.5 1.9 2.7
2019-Apr-20 06:59N 49°02' W 058°07'0 0.2
2019-Apr-20 06:30N 49°02' W 058°07'2 3.6
2019-Apr-20 06:00N 49°00' W 058°06'240.2 350 / 61012.5 2.2 3.0
2019-Apr-20 05:57N 49°02' W 058°07'0 0.1
2019-Apr-20 05:30N 49°02' W 058°08'0 0.2
2019-Apr-20 05:01N 49°02' W 058°07'2126.0
2019-Apr-20 05:00N 49°00' W 058°06'2 4.6 230 / 21011.5 3.9 4.7
2019-Apr-20 04:30N 49°02' W 058°08'2 4.3
2019-Apr-20 04:00N 49°00' W 058°06'233.7 320 / 71011.4 1.8 2.6
2019-Apr-20 03:55N 49°02' W 058°08'0 0.1
2019-Apr-20 03:30N 49°02' W 058°08'0 0.1
2019-Apr-20 03:00N 49°02' W 058°08'2181.9
2019-Apr-20 03:00N 49°00' W 058°06'2 5.1 350 / 51010.8 1.9 2.7
2019-Apr-20 02:31N 49°02' W 058°08'0 0.0
2019-Apr-20 02:00N 49°02' W 058°08'2158.2
2019-Apr-20 02:00N 49°00' W 058°06'3 5.0 330 / 51010.0 2.5 3.3
2019-Apr-20 01:29N 49°02' W 058°08'0 0.1
2019-Apr-20 01:00N 49°02' W 058°08'3759.1
2019-Apr-20 01:00N 49°00' W 058°06'2 4.0 270 / 81009.0 3.7 4.5
2019-Apr-20 00:30N 49°02' W 058°08'0 0.1
2019-Apr-20 00:00N 49°02' W 058°08'2156.9
2019-Apr-20 00:00N 49°00' W 058°06'2 4.2 280 / 11008.7 4.8 5.6
2019-Apr-19 23:30N 49°02' W 058°08'0 0.1
2019-Apr-19 23:01N 49°02' W 058°08'2118.8
2019-Apr-19 23:00N 49°00' W 058°06'2 3.7 170 / 21007.5 5.3 6.1
2019-Apr-19 22:30N 49°01' W 058°08'2 3.5
2019-Apr-19 22:00N 49°00' W 058°06'257.4 140 / 31007.4 5.5 6.3
2019-Apr-19 21:58N 49°01' W 058°07'0 0.7
2019-Apr-19 21:30N 49°01' W 058°07'0 0.6
2019-Apr-19 21:00N 49°01' W 058°07'159.2
2019-Apr-19 21:00N 49°00' W 058°06'1 1.7 020 / 21007.8 4.4 5.3
2019-Apr-19 20:30N 49°01' W 058°06'1 2.3
2019-Apr-19 20:00N 48°60' W 058°05'135.7
2019-Apr-19 20:00N 49°00' W 058°06'4 7.3 140 / 191006.8 3.8 4.6
2019-Apr-19 19:30N 49°03' W 058°08'713.4
2019-Apr-19 19:00N 49°06' W 058°18'220.7 200 / 191005.2 6.6 7.5
2019-Apr-19 18:53N 49°08' W 058°20'1 1.6
2019-Apr-19 18:12N 49°09' W 058°20'314.9
2019-Apr-19 18:00N 49°12' W 058°18'0 0.0 170 / 141005.7 6.6 7.4
2019-Apr-19 17:00N 49°12' W 058°18'3 9.4 150 / 121007.8 3.8 4.6
2019-Apr-19 16:43N 49°09' W 058°18'810.8
2019-Apr-19 16:00N 49°04' W 058°09'3201.0
2019-Apr-19 16:00N 49°06' W 058°06'1212.0 150 / 251011.4 2.0 2.8
2019-Apr-19 15:00N 48°54' W 058°06'621.9 110 / 121013.1 1.0 1.8
2019-Apr-19 14:44N 48°60' W 058°05'0 0.0
2019-Apr-19 14:02N 48°60' W 058°05'6128.4
2019-Apr-19 14:00N 48°54' W 058°06'6138.8 110 / 161014.4 0.7 1.4
2019-Apr-19 13:57N 48°60' W 058°05'0 0.0
2019-Apr-19 13:29N 48°60' W 058°05'611.5
2019-Apr-19 13:00N 48°54' W 058°06'6341.4 150 / 221015.6 1.1 1.8
2019-Apr-19 12:59N 48°60' W 058°05'0 0.1
2019-Apr-19 12:29N 48°60' W 058°05'611.5
2019-Apr-19 12:00N 48°54' W 058°06'651.1 100 / 121017.2 1.9 2.6
2019-Apr-19 11:53N 48°60' W 058°05'0 0.0
2019-Apr-19 11:30N 48°60' W 058°05'0 0.0
2019-Apr-19 11:00N 48°60' W 058°05'6406.5
2019-Apr-19 11:00N 48°54' W 058°06'611.7 100 / 91018.9 2.8 3.4
2019-Apr-19 10:31N 48°60' W 058°05'0 0.0
2019-Apr-19 10:00N 48°60' W 058°05'6484.0
2019-Apr-19 10:00N 48°54' W 058°06'611.6 100 / 71020.4 0.6 1.3
2019-Apr-19 09:30N 48°60' W 058°05'0 0.0
2019-Apr-19 09:00N 48°60' W 058°05'6376.1
2019-Apr-19 09:00N 48°54' W 058°06'611.7 100 / 91021.6 -0.0 0.6
2019-Apr-19 08:30N 48°60' W 058°05'0 0.0
2019-Apr-19 08:00N 48°60' W 058°05'6406.1
2019-Apr-19 08:00N 48°54' W 058°06'611.7 120 / 101021.9 -0.5 0.1
2019-Apr-19 07:30N 48°60' W 058°05'0 0.0
2019-Apr-19 07:00N 48°60' W 058°05'6406.5
2019-Apr-19 07:00N 48°54' W 058°06'611.6 100 / 91022.6 -0.2 0.3
2019-Apr-19 06:30N 48°60' W 058°05'0 0.0
2019-Apr-19 06:00N 48°60' W 058°05'6441.4
2019-Apr-19 06:00N 48°54' W 058°06'611.3 090 / 41022.8 0.6 1.2
2019-Apr-19 05:30N 48°60' W 058°05'611.3
2019-Apr-19 05:00N 48°54' W 058°06'63384.3 090 / 51023.2 0.3 0.8
2019-Apr-19 04:59N 48°60' W 058°05'0 0.0
2019-Apr-19 04:30N 48°60' W 058°05'0 0.0
2019-Apr-19 04:00N 48°60' W 058°05'6362.9
2019-Apr-19 04:00N 48°54' W 058°06'611.3 100 / 71024.2 -0.4 0.2
2019-Apr-19 03:29N 48°60' W 058°05'0 0.0
2019-Apr-19 03:01N 48°60' W 058°05'6338.8
2019-Apr-19 03:00N 48°54' W 058°06'611.7 130 / 31024.6 0.7 1.3
2019-Apr-19 02:31N 48°60' W 058°05'0 0.0
2019-Apr-19 02:00N 48°60' W 058°05'6390.5
2019-Apr-19 02:00N 48°54' W 058°06'611.7 120 / 41024.9 -0.2 0.3
2019-Apr-19 01:31N 48°60' W 058°05'0 0.0
2019-Apr-19 01:00N 48°60' W 058°05'6363.0
2019-Apr-19 01:00N 48°54' W 058°06'611.7 160 / 41025.4 -1.6-0.9
2019-Apr-19 00:31N 48°60' W 058°05'0 0.0
2019-Apr-19 00:00N 48°60' W 058°05'0 0.0
2019-Apr-18 23:31N 48°60' W 058°05'0 0.0
2019-Apr-18 23:01N 48°60' W 058°05'6338.5
2019-Apr-18 23:00N 48°54' W 058°06'611.6 340 / 31025.3 -0.3 0.2
2019-Apr-18 22:30N 48°60' W 058°05'0 0.0
2019-Apr-18 22:00N 48°60' W 058°05'6362.3
2019-Apr-18 22:00N 48°54' W 058°06'611.6 310 / 71025.5 -0.7-0.1
2019-Apr-18 21:30N 48°60' W 058°05'0 0.0
2019-Apr-18 21:01N 48°60' W 058°05'6338.5
2019-Apr-18 21:00N 48°54' W 058°06'611.7 310 / 81024.9 0.8 1.3
2019-Apr-18 20:31N 48°60' W 058°05'0 0.0
2019-Apr-18 20:01N 48°60' W 058°05'6338.5
2019-Apr-18 20:00N 48°54' W 058°06'611.6 320 / 81024.8 0.9 1.4
2019-Apr-18 19:30N 48°60' W 058°05'0 0.0
2019-Apr-18 19:00N 48°60' W 058°05'6362.3
2019-Apr-18 19:00N 48°54' W 058°06'611.7 270 / 61024.9 0.8 1.3
2019-Apr-18 18:31N 48°60' W 058°05'0 0.0
2019-Apr-18 18:01N 48°60' W 058°05'6338.1
2019-Apr-18 18:00N 48°54' W 058°06'611.6 320 / 51024.7 0.9 1.4
2019-Apr-18 17:30N 48°60' W 058°05'0 0.0
2019-Apr-18 17:00N 48°60' W 058°05'6422.2
2019-Apr-18 17:00N 48°54' W 058°06'611.7 340 / 101024.3 0.5 1.0
2019-Apr-18 16:31N 48°60' W 058°05'0 0.0
2019-Apr-18 16:01N 48°60' W 058°05'6338.1
2019-Apr-18 16:00N 48°54' W 058°06'611.7 340 / 101024.1 -0.0 0.6
2019-Apr-18 15:31N 48°60' W 058°05'0 0.0
2019-Apr-18 15:01N 48°60' W 058°05'6338.5
2019-Apr-18 15:00N 48°54' W 058°06'611.7 350 / 81024.0 0.1 0.7
2019-Apr-18 14:31N 48°60' W 058°05'0 0.0
2019-Apr-18 14:00N 48°60' W 058°05'3 5.9
2019-Apr-18 13:30N 49°02' W 058°07'815.5
2019-Apr-18 13:00N 49°06' W 058°18'132.2 340 / 61023.4 -1.2-0.6
2019-Apr-18 12:57N 49°07' W 058°18'4 4.0
2019-Apr-18 12:00N 49°06' W 058°12'246.0 290 / 121022.4 -1.5-0.9
2019-Apr-18 11:57N 49°04' W 058°11'713.9
2019-Apr-18 11:28N 48°59' W 058°04'2 4.9
2019-Apr-18 11:00N 48°59' W 058°01'5284.7
2019-Apr-18 11:00N 48°54' W 058°00'510.4 290 / 91022.4 -1.4-0.8
2019-Apr-18 10:30N 48°59' W 058°02'4 8.2
2019-Apr-18 10:00N 49°01' W 058°07'299.9
2019-Apr-18 10:00N 49°00' W 058°06'2 3.3 360 / 61021.6 -2.3-1.7
2019-Apr-18 09:31N 49°01' W 058°07'0 0.0
2019-Apr-18 09:01N 49°01' W 058°07'296.3
2019-Apr-18 09:00N 49°00' W 058°06'2 3.3 340 / 61020.7 -2.5-1.9
2019-Apr-18 08:31N 49°01' W 058°07'0 0.0
2019-Apr-18 08:01N 49°01' W 058°07'296.0
2019-Apr-18 08:00N 49°00' W 058°06'2 3.3 010 / 61019.7 -2.0-1.4
2019-Apr-18 07:30N 49°01' W 058°07'0 0.0
2019-Apr-18 07:01N 49°01' W 058°07'296.1
2019-Apr-18 07:00N 49°00' W 058°06'2 3.3 340 / 71018.9 -1.3-0.6
2019-Apr-18 06:30N 49°01' W 058°07'0 0.0
2019-Apr-18 06:01N 49°01' W 058°07'296.0
2019-Apr-18 06:00N 49°00' W 058°06'2 3.3 350 / 81017.8 -1.0-0.4
2019-Apr-18 05:31N 49°01' W 058°07'0 0.0
2019-Apr-18 05:01N 49°01' W 058°07'296.1
2019-Apr-18 05:00N 49°00' W 058°06'2 3.3 360 / 111017.3 -0.0 0.6
2019-Apr-18 04:31N 49°01' W 058°07'0 0.0
2019-Apr-18 04:00N 49°01' W 058°07'2102.9
2019-Apr-18 04:00N 49°00' W 058°06'2 3.3 360 / 91017.0 -0.2 0.5
2019-Apr-18 03:31N 49°01' W 058°07'0 0.0
2019-Apr-18 03:01N 49°01' W 058°07'296.3
2019-Apr-18 03:00N 49°00' W 058°06'2 3.3 330 / 121016.4 0.1 0.8
2019-Apr-18 02:31N 49°01' W 058°07'0 0.0
2019-Apr-18 02:00N 49°01' W 058°07'2102.9
2019-Apr-18 02:00N 49°00' W 058°06'2 3.3 320 / 111015.8 0.2 0.9
2019-Apr-18 01:31N 49°01' W 058°07'0 0.0
2019-Apr-18 01:00N 49°01' W 058°07'2120.0
2019-Apr-18 01:00N 49°00' W 058°06'2 3.2 320 / 101015.2 0.5 1.2
2019-Apr-18 00:30N 49°01' W 058°07'0 0.0
2019-Apr-18 00:01N 49°01' W 058°07'294.9
2019-Apr-18 00:00N 49°00' W 058°06'2 3.3 340 / 121014.2 0.7 1.3
2019-Apr-17 23:31N 49°01' W 058°07'0 0.0
2019-Apr-17 23:00N 49°01' W 058°07'2142.3
2019-Apr-17 23:00N 49°00' W 058°06'2 3.3 350 / 151012.7 0.9 1.5
2019-Apr-17 22:30N 49°01' W 058°07'0 0.0
2019-Apr-17 22:00N 49°01' W 058°07'2218.9
2019-Apr-17 22:00N 49°00' W 058°06'2 3.3 350 / 171011.6 1.0 1.7
2019-Apr-17 21:30N 49°01' W 058°07'611.9
2019-Apr-17 21:00N 48°58' W 057°59'6361.1
2019-Apr-17 21:00N 48°54' W 057°54'4 8.3 320 / 111010.1 2.1 2.7
2019-Apr-17 20:31N 48°58' W 057°57'611.2
2019-Apr-17 20:00N 48°60' W 058°05'6466.9
2019-Apr-17 20:00N 48°54' W 058°06'1123.5 320 / 181009.3 2.5 3.2
2019-Apr-17 19:30N 49°05' W 058°11'4 8.6
2019-Apr-17 19:00N 49°06' W 058°18'123.1 1008.7 2.7 3.4
2019-Apr-17 18:56N 49°07' W 058°19'1 1.7
2019-Apr-17 18:27N 49°08' W 058°19'4 8.6
2019-Apr-17 18:00N 49°12' W 058°18'234.0 010 / 241006.3 1.3 2.0
2019-Apr-17 17:56N 49°10' W 058°20'1313.8
2019-Apr-17 17:00N 49°12' W 058°00'4 3.9 020 / 361003.2 1.3 2.0
2019-Apr-17 16:00N 49°12' W 057°54'1211.8 020 / 311000.2 1.4 2.2
2019-Apr-17 15:00N 49°12' W 058°12'1818.4 330 / 231002.9 -0.3 0.5
2019-Apr-17 14:00N 49°30' W 058°18'1313.1 020 / 361001.4 0.3 1.1
2019-Apr-17 13:00N 49°36' W 058°00'7 7.2 360 / 29999.6 -0.8-0.0
2019-Apr-17 12:00N 49°30' W 057°54'0 0.0 340 / 29998.9 -0.4 0.4
2019-Apr-17 11:00N 49°30' W 057°54'0 0.0 330 / 28996.4 -0.7 0.2
2019-Apr-17 10:00N 49°30' W 057°54'0 0.0 330 / 28995.1 -0.8-0.0
2019-Apr-17 09:00N 49°30' W 057°54'0 0.0 340 / 33992.7 -0.8-0.0
2019-Apr-17 08:00N 49°30' W 057°54'0 0.0 340 / 29991.7 -0.9-0.1
2019-Apr-17 07:00N 49°30' W 057°54'0 0.0 330 / 28990.6 -1.0-0.2
2019-Apr-17 05:00N 49°30' W 057°54'0 0.0 330 / 27988.3 -0.6 0.2
2019-Apr-17 04:00N 49°30' W 057°54'0 0.0 330 / 22987.6 -0.5 0.3
2019-Apr-17 03:00N 49°30' W 057°54'6 6.0 320 / 21986.8 -0.4 0.4
2019-Apr-17 02:00N 49°36' W 057°54'1414.3 340 / 19986.3 -0.2 0.6
2019-Apr-17 01:00N 49°48' W 058°06'1313.1 020 / 33986.6 -0.7 0.1
2019-Apr-17 00:00N 49°54' W 057°48'0 0.0 010 / 25985.8 -0.6 0.3
2019-Apr-16 23:00N 49°54' W 057°48'1312.6 010 / 16985.1 -0.7 0.1
2019-Apr-16 22:00N 50°06' W 057°54'1312.6 020 / 17986.1 0.6 1.5
2019-Apr-16 21:00N 50°18' W 057°48'2019.6 020 / 17986.6 1.4 2.1
2019-Apr-16 20:00N 50°36' W 057°36'1414.2 020 / 18987.9 0.2 1.0
2019-Apr-16 19:00N 50°48' W 057°24'1312.9 010 / 14988.0 0.2 1.0
2019-Apr-16 18:00N 50°54' W 057°06'6 6.0 020 / 14987.3 0.3 1.1
2019-Apr-16 17:00N 50°48' W 057°06'10 9.7 040 / 19986.6 -0.3 0.5
2019-Apr-16 16:00N 50°54' W 057°18'7 7.1 040 / 35988.8 -1.5-0.7
2019-Apr-16 15:00N 50°48' W 057°24'7 7.1 030 / 26990.3 -1.6-0.9
2019-Apr-16 14:00N 50°42' W 057°18'6 3.0 040 / 27990.3 -0.9-0.2
2019-Apr-16 12:00N 50°36' W 057°18'0 0.0 070 / 16989.1 -0.3 0.4
2019-Apr-16 11:00N 50°36' W 057°18'1312.9 090 / 38989.2 -0.8-0.2
2019-Apr-16 10:00N 50°42' W 057°36'1312.9 070 / 36990.2 -0.6 0.1
2019-Apr-16 09:00N 50°36' W 057°54'1212.0 070 / 29990.0 -0.2 0.4
2019-Apr-16 08:00N 50°24' W 057°54'1414.2 090 / 30988.2 0.8 1.5
2019-Apr-16 07:00N 50°12' W 058°06'1212.0 090 / 17988.7 1.9 2.6
2019-Apr-16 06:00N 50°00' W 058°06'1414.3 100 / 21988.4 2.2 3.0
2019-Apr-16 05:00N 49°48' W 058°18'7 7.1 090 / 19989.8 2.3 3.1
2019-Apr-16 04:00N 49°42' W 058°24'1312.6 120 / 22991.0 2.6 3.4
2019-Apr-16 03:00N 49°30' W 058°30'1312.6 140 / 27990.1 3.4 4.2
2019-Apr-16 02:00N 49°18' W 058°24'6 6.0 140 / 42988.4 2.7 3.6
2019-Apr-16 01:00N 49°12' W 058°24'4 5.0 130 / 39991.8 2.0 2.9
2019-Apr-16 00:16N 49°10' W 058°20'414.8
2019-Apr-16 00:00N 49°06' W 058°18'411.2 160 / 22998.1 2.1 2.9
2019-Apr-15 23:40N 49°09' W 058°16'710.8
2019-Apr-15 23:00N 49°06' W 058°06'4 3.9 100 / 31999.7 1.9 2.7
2019-Apr-15 22:00N 49°06' W 058°00'7 7.2 080 / 221002.9 2.5 3.3
2019-Apr-15 21:00N 49°12' W 057°54'7 7.2 070 / 161004.7 2.8 3.6
2019-Apr-15 20:00N 49°06' W 058°00'0 0.0 090 / 151007.5 4.0 4.7
2019-Apr-15 19:00N 49°06' W 058°00'911.7 100 / 91006.4 4.9 5.6
2019-Apr-15 18:11N 49°09' W 058°14'210.6
2019-Apr-15 18:00N 49°09' W 058°17'3190.6
2019-Apr-15 18:00N 49°12' W 058°18'6 6.0 320 / 61009.0 1.4 2.1
2019-Apr-15 17:00N 49°06' W 058°18'512.5 260 / 81009.4 3.8 4.5
2019-Apr-15 16:35N 49°04' W 058°11'116.2
2019-Apr-15 16:30N 49°04' W 058°09'714.7
2019-Apr-15 16:00N 48°59' W 058°01'5297.3
2019-Apr-15 16:00N 48°54' W 058°00'4 8.7 180 / 141009.9 8.8 9.5
2019-Apr-15 15:31N 48°58' W 057°57'0 0.0
2019-Apr-15 15:01N 48°58' W 057°57'4236.2
2019-Apr-15 15:00N 48°54' W 057°54'4 8.1 020 / 11010.6 10.311.0
2019-Apr-15 14:31N 48°58' W 057°57'0 0.0
2019-Apr-15 14:01N 48°58' W 057°57'4236.2
2019-Apr-15 14:00N 48°54' W 057°54'4 8.1 010 / 51010.7 8.9 9.7
2019-Apr-15 13:31N 48°58' W 057°57'0 0.0
2019-Apr-15 13:00N 48°58' W 057°57'4244.3
2019-Apr-15 13:00N 48°54' W 057°54'4 8.1 010 / 31011.3 7.1 7.8
2019-Apr-15 12:31N 48°58' W 057°57'0 0.0
2019-Apr-15 12:00N 48°58' W 057°57'4295.2
2019-Apr-15 12:00N 48°54' W 057°54'4 8.1 010 / 41012.3 4.6 5.4
2019-Apr-15 11:31N 48°58' W 057°57'0 0.0
2019-Apr-15 11:01N 48°58' W 057°57'4236.2
2019-Apr-15 11:00N 48°54' W 057°54'4 8.1 350 / 21013.2 3.1 3.8
2019-Apr-15 10:31N 48°58' W 057°57'0 0.0
2019-Apr-15 10:01N 48°58' W 057°57'4235.8
2019-Apr-15 10:00N 48°54' W 057°54'4 8.1 1012.8 1.7 2.4
2019-Apr-15 09:31N 48°58' W 057°57'0 0.0
2019-Apr-15 09:01N 48°58' W 057°57'4236.5
2019-Apr-15 09:00N 48°54' W 057°54'4 8.1 120 / 21012.4 0.8 1.4
2019-Apr-15 08:31N 48°58' W 057°57'0 0.0
2019-Apr-15 08:01N 48°58' W 057°57'4236.2
2019-Apr-15 08:00N 48°54' W 057°54'4 8.1 090 / 21012.4 1.3 2.0
2019-Apr-15 07:31N 48°58' W 057°57'0 0.0
2019-Apr-15 07:01N 48°58' W 057°57'4236.2
2019-Apr-15 07:00N 48°54' W 057°54'4 8.1 100 / 21012.1 1.0 1.7
2019-Apr-15 06:30N 48°58' W 057°57'0 0.0
2019-Apr-15 06:01N 48°58' W 057°57'4236.2
2019-Apr-15 06:00N 48°54' W 057°54'4 8.1 110 / 51011.9 1.0 1.7
2019-Apr-15 05:31N 48°58' W 057°57'0 0.0
2019-Apr-15 05:01N 48°58' W 057°57'4236.2
2019-Apr-15 05:00N 48°54' W 057°54'4 8.1 140 / 71011.7 1.4 2.1
2019-Apr-15 04:31N 48°58' W 057°57'0 0.0
2019-Apr-15 04:01N 48°58' W 057°57'4236.2
2019-Apr-15 04:00N 48°54' W 057°54'4 8.1 130 / 81011.5 1.1 1.8
2019-Apr-15 03:31N 48°58' W 057°57'0 0.0
2019-Apr-15 03:00N 48°58' W 057°57'4244.3
2019-Apr-15 03:00N 48°54' W 057°54'4 8.1 150 / 61010.9 2.8 3.5
2019-Apr-15 02:31N 48°58' W 057°57'0 0.0
2019-Apr-15 02:01N 48°58' W 057°57'4236.2
2019-Apr-15 02:00N 48°54' W 057°54'4 8.1 230 / 21010.7 3.7 4.4
2019-Apr-15 01:31N 48°58' W 057°57'0 0.0
2019-Apr-15 01:01N 48°58' W 057°57'4236.5
2019-Apr-15 01:00N 48°54' W 057°54'4 8.1 190 / 21010.6 3.4 4.1
2019-Apr-15 00:31N 48°58' W 057°57'0 0.0
2019-Apr-15 00:01N 48°58' W 057°57'4236.2
2019-Apr-15 00:00N 48°54' W 057°54'4 8.1 250 / 61010.1 3.4 4.1
2019-Apr-14 23:30N 48°58' W 057°57'0 0.0
2019-Apr-14 23:01N 48°58' W 057°57'4236.2
2019-Apr-14 23:00N 48°54' W 057°54'4 8.1 220 / 51009.0 3.5 4.2
2019-Apr-14 22:31N 48°58' W 057°57'0 0.0
2019-Apr-14 22:01N 48°58' W 057°57'4228.5
2019-Apr-14 22:00N 48°54' W 057°54'4 8.1 220 / 21007.6 3.5 4.2
2019-Apr-14 21:30N 48°58' W 057°57'0 0.0
2019-Apr-14 21:01N 48°58' W 057°57'4232.3
2019-Apr-14 21:00N 48°54' W 057°54'4 8.1 260 / 21006.9 3.4 4.1
2019-Apr-14 20:31N 48°58' W 057°57'0 0.0
2019-Apr-14 20:00N 48°58' W 057°57'4244.3
2019-Apr-14 20:00N 48°54' W 057°54'4 8.1 210 / 11006.5 4.5 5.2
2019-Apr-14 19:31N 48°58' W 057°57'0 0.0
2019-Apr-14 19:01N 48°58' W 057°57'4236.2
2019-Apr-14 19:00N 48°54' W 057°54'4 8.1 270 / 51005.6 4.1 4.8
2019-Apr-14 18:31N 48°58' W 057°57'0 0.0
2019-Apr-14 18:01N 48°58' W 057°57'4236.2
2019-Apr-14 18:00N 48°54' W 057°54'4 8.1 280 / 91005.2 3.5 4.3
2019-Apr-14 17:31N 48°58' W 057°57'3 6.0
2019-Apr-14 17:01N 48°59' W 058°01'5269.7
2019-Apr-14 17:00N 48°54' W 058°00'1224.3 290 / 91004.4 3.0 3.8
2019-Apr-14 16:30N 49°04' W 058°09'611.7
2019-Apr-14 16:00N 49°06' W 058°18'624.4 250 / 171003.2 1.1 1.8
2019-Apr-14 15:45N 49°11' W 058°23'1 5.4
2019-Apr-14 15:29N 49°12' W 058°25'3 6.5
2019-Apr-14 15:00N 49°12' W 058°30'3 4.0 270 / 121002.8 0.4 1.2
2019-Apr-14 14:10N 49°12' W 058°25'1 4.5
2019-Apr-14 14:00N 49°12' W 058°24'2139.0 240 / 201001.8 1.2 1.9
2019-Apr-14 13:59N 49°10' W 058°23'2 3.6
2019-Apr-14 13:26N 49°09' W 058°21'4 8.0
2019-Apr-14 13:00N 49°12' W 058°24'0 0.0 240 / 161003.2 0.7 1.5
2019-Apr-14 12:00N 49°12' W 058°24'10 9.9 230 / 161002.2 0.7 1.5
2019-Apr-14 11:00N 49°06' W 058°12'2132.6 280 / 181002.3 2.2 2.9
2019-Apr-14 10:59N 49°04' W 058°11'4 8.9
2019-Apr-14 10:29N 49°01' W 058°06'4 8.1
2019-Apr-14 10:01N 48°59' W 058°02'5285.4
2019-Apr-14 10:00N 48°54' W 058°00'5 9.8 280 / 151002.0 2.8 3.6
2019-Apr-14 09:30N 48°59' W 058°02'3 6.9
2019-Apr-14 09:01N 48°58' W 057°57'4228.8
2019-Apr-14 09:00N 48°54' W 057°54'4 8.1 350 / 51000.8 3.3 4.1
2019-Apr-14 08:31N 48°58' W 057°57'0 0.0
2019-Apr-14 08:01N 48°58' W 057°57'4232.4
2019-Apr-14 08:00N 48°54' W 057°54'4 8.1 230 / 11002.1 2.6 3.4
2019-Apr-14 07:31N 48°58' W 057°57'0 0.0
2019-Apr-14 07:01N 48°58' W 057°57'4236.2
2019-Apr-14 07:00N 48°54' W 057°54'4 8.1 340 / 41001.3 2.8 3.6
2019-Apr-14 06:31N 48°58' W 057°57'0 0.0
2019-Apr-14 06:00N 48°58' W 057°57'4244.4
2019-Apr-14 06:00N 48°54' W 057°54'4 8.1 240 / 71003.9 1.9 2.7
2019-Apr-14 05:31N 48°58' W 057°57'0 0.0
2019-Apr-14 05:01N 48°58' W 057°57'4236.3
2019-Apr-14 05:00N 48°54' W 057°54'4 8.1 360 / 11003.3 4.6 5.3
2019-Apr-14 04:31N 48°58' W 057°57'0 0.0
2019-Apr-14 04:01N 48°58' W 057°57'4236.2
2019-Apr-14 04:00N 48°54' W 057°54'4 8.1 240 / 41004.7 3.6 4.3
2019-Apr-14 03:31N 48°58' W 057°57'0 0.0
2019-Apr-14 03:01N 48°58' W 057°57'4236.2
2019-Apr-14 03:00N 48°54' W 057°54'4 8.1 110 / 21006.1 4.1 4.8
2019-Apr-14 02:31N 48°58' W 057°57'0 0.0
2019-Apr-14 02:01N 48°58' W 057°57'0 0.0
2019-Apr-14 01:31N 48°58' W 057°57'0 0.0
2019-Apr-14 01:01N 48°58' W 057°57'4236.2
2019-Apr-14 01:00N 48°54' W 057°54'4 8.1 310 / 11008.4 2.7 3.3
2019-Apr-14 00:31N 48°58' W 057°57'0 0.0
2019-Apr-14 00:01N 48°58' W 057°57'4236.2
2019-Apr-14 00:00N 48°54' W 057°54'4 8.1 240 / 51009.3 3.3 3.9
2019-Apr-13 23:31N 48°58' W 057°57'0 0.0
2019-Apr-13 23:01N 48°58' W 057°57'4236.2
2019-Apr-13 23:00N 48°54' W 057°54'4 8.1 190 / 41009.0 4.3 4.8
2019-Apr-13 22:31N 48°58' W 057°57'0 0.0
2019-Apr-13 22:01N 48°58' W 057°57'4236.2
2019-Apr-13 22:00N 48°54' W 057°54'4 8.1 170 / 51009.9 4.8 5.3
2019-Apr-13 21:31N 48°58' W 057°57'0 0.0
2019-Apr-13 21:01N 48°58' W 057°57'4235.8
2019-Apr-13 21:00N 48°54' W 057°54'4 8.1 150 / 71011.0 5.7 6.1
2019-Apr-13 20:31N 48°58' W 057°57'0 0.0
2019-Apr-13 20:01N 48°58' W 057°57'4235.8
2019-Apr-13 20:00N 48°54' W 057°54'4 8.1 170 / 71011.4 6.9 7.4
2019-Apr-13 19:31N 48°58' W 057°57'0 0.0
2019-Apr-13 19:01N 48°58' W 057°57'4236.2
2019-Apr-13 19:00N 48°54' W 057°54'4 8.1 150 / 81013.1 6.9 7.5
2019-Apr-13 18:31N 48°58' W 057°57'0 0.0
2019-Apr-13 18:01N 48°58' W 057°57'4236.2
2019-Apr-13 18:00N 48°54' W 057°54'4 8.1 170 / 81013.3 7.1 7.8
2019-Apr-13 17:30N 48°58' W 057°57'0 0.0
2019-Apr-13 17:01N 48°58' W 057°57'4232.2
2019-Apr-13 17:00N 48°54' W 057°54'4 7.5 200 / 111014.9 6.9 7.6
2019-Apr-13 16:28N 48°58' W 057°57'4 8.3
2019-Apr-13 16:00N 48°54' W 057°54'4147.6 270 / 21016.1 5.9 6.6
2019-Apr-13 15:58N 48°58' W 057°57'0 0.0
2019-Apr-13 15:25N 48°58' W 057°57'0 0.3
2019-Apr-13 15:01N 48°58' W 057°57'4238.2
2019-Apr-13 15:00N 48°54' W 057°54'5 9.7 030 / 31017.2 3.0 3.6
2019-Apr-13 14:30N 48°58' W 057°58'2 3.9
2019-Apr-13 14:00N 48°58' W 058°01'4288.3
2019-Apr-13 14:00N 48°54' W 058°00'814.8 130 / 51017.6 1.9 2.5
2019-Apr-13 13:27N 49°01' W 058°06'4 8.9
2019-Apr-13 13:00N 49°04' W 058°10'2159.9
2019-Apr-13 13:00N 49°06' W 058°12'5 7.2 120 / 91017.8 0.3 1.0
2019-Apr-13 12:17N 49°08' W 058°19'517.4
2019-Apr-13 12:00N 49°12' W 058°24'4 3.9 080 / 91018.4 -3.1-2.5
2019-Apr-13 11:00N 49°12' W 058°30'914.6 190 / 91019.4 -2.1-1.5
2019-Apr-13 10:24N 49°08' W 058°18'616.4
2019-Apr-13 10:00N 49°04' W 058°10'2252.1
2019-Apr-13 10:00N 49°06' W 058°12'1019.9 180 / 41020.1 -3.8-3.3
2019-Apr-13 09:31N 48°59' W 058°02'4 7.8
2019-Apr-13 09:00N 48°58' W 057°57'4253.0
2019-Apr-13 09:00N 48°54' W 057°54'4 8.1 340 / 11020.3 -1.3-0.8
2019-Apr-13 08:30N 48°58' W 057°57'0 0.0
2019-Apr-13 08:01N 48°58' W 057°57'4236.3
2019-Apr-13 08:00N 48°54' W 057°54'4 8.1 120 / 11019.9 -3.1-2.5
2019-Apr-13 07:30N 48°58' W 057°57'0 0.0
2019-Apr-13 07:00N 48°58' W 057°57'4244.3
2019-Apr-13 07:00N 48°54' W 057°54'4 8.1 110 / 71019.6 -3.4-2.9
2019-Apr-13 06:30N 48°58' W 057°57'0 0.0
2019-Apr-13 06:00N 48°58' W 057°57'4244.0
2019-Apr-13 06:00N 48°54' W 057°54'4 8.1 100 / 81019.9 -3.8-3.3
2019-Apr-13 05:30N 48°58' W 057°57'0 0.0
2019-Apr-13 05:01N 48°58' W 057°57'4235.9
2019-Apr-13 05:00N 48°54' W 057°54'4 8.1 090 / 61020.2 -3.2-2.7
2019-Apr-13 04:31N 48°58' W 057°57'0 0.0
2019-Apr-13 04:01N 48°58' W 057°57'4235.9
2019-Apr-13 04:00N 48°54' W 057°54'4 8.1 080 / 61020.3 -2.6-2.1
2019-Apr-13 03:31N 48°58' W 057°57'0 0.0
2019-Apr-13 03:00N 48°58' W 057°57'4244.0
2019-Apr-13 03:00N 48°54' W 057°54'4 8.1 090 / 41020.4 -1.9-1.4
2019-Apr-13 02:31N 48°58' W 057°57'0 0.0
2019-Apr-13 02:01N 48°58' W 057°57'4228.3
2019-Apr-13 02:00N 48°54' W 057°54'4 8.1 230 / 21020.4 -0.7-0.2
2019-Apr-13 01:31N 48°58' W 057°57'0 0.0
2019-Apr-13 01:01N 48°58' W 057°57'4235.8
2019-Apr-13 01:00N 48°54' W 057°54'4 8.1 150 / 31020.2 -0.6-0.1
2019-Apr-13 00:31N 48°58' W 057°57'0 0.0
2019-Apr-13 00:01N 48°58' W 057°57'4235.9
2019-Apr-13 00:00N 48°54' W 057°54'4 8.1 180 / 111020.0 -0.2 0.3
2019-Apr-12 23:31N 48°58' W 057°57'0 0.0
2019-Apr-12 23:00N 48°58' W 057°57'4244.3
2019-Apr-12 23:00N 48°54' W 057°54'4 8.1 260 / 31020.0 -0.6-0.1
2019-Apr-12 22:31N 48°58' W 057°57'4 7.6
2019-Apr-12 22:00N 48°54' W 057°54'0 0.0 240 / 41019.9 0.9 1.3
2019-Apr-12 21:00N 48°54' W 057°54'0 0.0 240 / 71020.0 0.5 1.0
2019-Apr-12 20:00N 48°54' W 057°54'10 9.9 280 / 101019.5 1.8 2.3
2019-Apr-12 19:00N 49°00' W 058°06'421.3 330 / 131019.6 1.0 1.5
2019-Apr-12 18:48N 49°04' W 058°09'7 8.2
2019-Apr-12 18:00N 49°06' W 058°18'0 0.0 280 / 121019.3 -0.7-0.2
2019-Apr-12 17:00N 49°06' W 058°18'5 9.0 260 / 151018.8 -1.4-0.9
2019-Apr-12 16:25N 49°04' W 058°11'614.7
2019-Apr-12 16:00N 48°60' W 058°05'6369.1
2019-Apr-12 16:00N 48°54' W 058°06'714.9 310 / 171017.8 0.2 0.7
2019-Apr-12 15:31N 48°58' W 057°57'0 0.1
2019-Apr-12 15:00N 48°58' W 057°57'4244.1
2019-Apr-12 15:00N 48°54' W 057°54'4 8.1 240 / 91019.2 0.6 1.2
2019-Apr-12 14:30N 48°58' W 057°57'0 0.0
2019-Apr-12 14:01N 48°58' W 057°57'4235.8
2019-Apr-12 14:00N 48°54' W 057°54'4 8.1 230 / 101019.5 -0.0 0.5
2019-Apr-12 13:31N 48°58' W 057°57'0 0.0
2019-Apr-12 13:01N 48°58' W 057°57'4235.8
2019-Apr-12 13:00N 48°54' W 057°54'4 8.1 250 / 91019.7 -0.2 0.3
2019-Apr-12 12:30N 48°58' W 057°57'0 0.0
2019-Apr-12 12:00N 48°58' W 057°57'4295.2
2019-Apr-12 12:00N 48°54' W 057°54'4 8.1 250 / 101019.3 -1.1-0.6
2019-Apr-12 11:30N 48°58' W 057°57'0 0.0
2019-Apr-12 11:01N 48°58' W 057°57'4235.9
2019-Apr-12 11:00N 48°54' W 057°54'   240 / 61019.3 -1.8-1.3

Dump ship's entire track history